Mugla, Turkey
Current Conditions -  °F | °C
As of 1:20 PM on Saturday 20 Dec 2014 (Local Time) from LTFE Reporting Station
Few Clouds Few Clouds  
Wind Chill: 61°   Ceiling: Unl
Heat Index: 61°   Visibility: 6mi
Dew Point: 50°   Wind: 8mph
Humidity: 68%   Direction: 280°W
Pressure: 30.15"   Gusts: NA
Location:  37.22°N, 28.36°E
Report Text: LTFE 201120Z 28007KT 9999 FEW035 16/10 Q1021 NOSIG
Loading
Personal Weather Stations






























Interactive Weather Map New forecast layout! Learn more

10-Day Weather Forecast

Advertisements
Track Severe Weather on mobile